Aérodrome :
LOGIN :

S'inscrire | Disclaimer

   EN    FR    IT 

 










Légende :    VFR   VFR Marginal   IFR   IFR Intensif   IFR Très Intensif
Visi : 
Plafond : 
>= 8 km
>= 3000ft
5 à 8 km
1000 à 3000 ft
1500m à 5 km
500 à 1000 ft
800 à 1500m
200 à 500 ft
< 800m
< 200 ft
Symboles :   Orages  Brouillard  Fortes neiges  Fortes précipitations  Vent > 20 kt
SIGMETs :   Divers  Orages  Givrage  Turbulence  Onde Orograph.  Cendres Volcan.







- Altitude de l'aérodrome : 117 ft
- Code IATA : NWI
- Voir les cartes d'approche


EGSH - Norwich

DERNIER METAR :
  • 290320Z AUTO 05012KT 020V090 4300 SHGR BKN003/// BKN007/// BKN010/// 14/13 Q1012 RERA

METARs EXPIRÉS :
  • 290250Z AUTO 06007KT 7000 RA FEW001/// BKN036/// 14/13 Q1015 RESHGR RERA
  • 290220Z AUTO 11004KT 070V140 8000 RA FEW005/// BKN037/// 15/13 Q1016 RERA
  • 290150Z AUTO 07004KT 030V100 9999 BKN039/// BKN047/// 15/13 Q1016
  • 290120Z AUTO 06005KT 9999 BKN040/// BKN047/// 15/13 Q1015
  • 290050Z AUTO 09005KT 9999 OVC040/// 15/13 Q1016

TAF AMD TAF EGSH
Valide du 29 à 03h jusqu'au 29 à 12h UTC


290334Z 2903/2912 07008KT 9999 FEW045
PROB30
TEMPO 2903/2905 VRB15G25KT 3000 +TSGR BKN003
PROB40 2905/2909 BKN010
ATIS : +44 1603 420 640
Pas de NOTAMs connus pour ce terrain.
1 SIGMET publié pour la FIR London (EGTT) :
 
Orages noyés dans la masse
EGTT SIGMET 01 VALID 290100/290400 EGRR
EGTT LONDON FIR EMBD TS OBS WI N5153 E00218 - N5142 E00210 - N5130 E00200 - N5107 E00200 - N5100 E00128 - N5040 E00128 - N5007 E00003 - N5149 E00041 - N5154 E00219 - N5153 E00218 TOP FL400 MOV NE 30KT NC=



MET'MAP, la Météo Aéronautique d'un coup d'oeil ! - Copyright ORBIFLY Décembre 2007 - Disclaimer

ORBIFLY MET'MAP TEAM :

Programmation & Développement : Alexandra Zaïnal
Conception & Développement : Baudouin d'Aumeries
Co-Programmation & Développement : Marc-Olivier Méhu
Soutien technique & logistique : Manuel Goepfert

Contact : metmap@orbifly.com




SOURCES & CREDITS :

   NOAA